Todd G — WRC6671 — position and weather

sailwx.info

Track history (hours):
 
Tides and Currents Weather Stations Pressure Air Temp Water Temp Dewpoint Dewpoint Depression Visibility Wind Speed Wind Dir Waves Ship Positions

Todd G

Owner: Harbor Towing & Fleeting, Inc., Metairie, LA. More information available from US FCC via Universal Licensing System and Coast Guard Vessel Documentation Center.

Last reported at 2015-Mar-05 23:30 UTC. Time now 2015-Mar-06 04:06 UTC.
Position N 29°56' W 090°00'.

Length 16 m.

Type: Towing. MMSI: 366988470.

Date/timePositionNaut miles runAvg speedWind from/ knotsBaromVisibWave heightAir tempDewpointWater temp
2015-Mar-05 23:30N 29°56' W 090°00'4 0.6
2015-Mar-05 17:30N 29°60' W 090°00'3 1.3
2015-Mar-05 15:17N 29°57' W 090°01'1 1.7
2015-Mar-05 14:31N 29°56' W 090°00'0 0.2
2015-Mar-05 13:31N 29°56' W 090°00'0 0.1
2015-Mar-05 12:11N 29°56' W 090°00'0 0.0
2015-Mar-05 11:33N 29°56' W 090°00'0 0.0
2015-Mar-05 10:31N 29°56' W 090°00'0 0.0
2015-Mar-05 09:28N 29°56' W 090°00'0 0.0
2015-Mar-05 08:33N 29°56' W 090°00'0 0.0
2015-Mar-05 07:33N 29°56' W 090°00'0 0.0
2015-Mar-05 06:33N 29°56' W 090°00'0 0.0
2015-Mar-05 05:31N 29°56' W 090°00'0 0.0
2015-Mar-05 04:31N 29°56' W 090°00'0 0.0
2015-Mar-05 03:31N 29°56' W 090°00'2 2.0
2015-Mar-05 02:33N 29°58' W 090°02'2 2.3
2015-Mar-05 01:30N 29°60' W 089°60'3 2.6
2015-Mar-05 00:31N 29°58' W 090°02'0 0.3
2015-Mar-04 23:08N 29°57' W 090°01'2 0.2
2015-Mar-04 10:28N 29°59' W 090°01'0 0.0
2015-Mar-04 09:21N 29°59' W 090°01'0 0.0
2015-Mar-04 08:23N 29°59' W 090°01'0 0.0
2015-Mar-04 07:30N 29°59' W 090°01'0 0.0
2015-Mar-04 06:31N 29°59' W 090°01'2 1.6
2015-Mar-04 05:25N 29°60' W 089°59'1 0.3
2015-Mar-04 02:31N 30°00' W 089°58'4 3.9
2015-Mar-04 01:33N 29°58' W 090°02'2 1.9
2015-Mar-04 00:30N 29°56' W 090°00'0 0.1
2015-Mar-03 23:27N 29°56' W 090°00'0 0.0
2015-Mar-03 22:33N 29°56' W 090°00'0 0.0
2015-Mar-03 21:32N 29°56' W 090°00'0 0.0
2015-Mar-03 20:33N 29°56' W 090°00'3 2.1
2015-Mar-03 19:13N 29°55' W 089°57'0 0.2
2015-Mar-03 18:30N 29°55' W 089°57'4 4.6
2015-Mar-03 17:32N 29°58' W 090°02'2 1.4
2015-Mar-03 16:18N 29°59' W 090°01'2 3.2
2015-Mar-03 15:32N 29°57' W 090°01'1 0.0
2015-Mar-03 02:06N 29°56' W 090°00'0 0.0
2015-Mar-03 00:16N 29°56' W 090°00'0 0.0
2015-Mar-02 23:33N 29°56' W 090°00'1 0.6
2015-Mar-02 22:10N 29°57' W 090°01'4 4.8
2015-Mar-02 21:19N 29°55' W 090°05'0 0.0
2015-Mar-02 08:09N 29°55' W 090°05'2 3.7
2015-Mar-02 07:32N 29°56' W 090°03'3 2.7
2015-Mar-02 06:33N 29°56' W 090°00'0 0.0
2015-Mar-02 05:31N 29°56' W 090°00'0 0.0
2015-Mar-02 04:31N 29°56' W 090°00'0 0.0
2015-Mar-02 03:32N 29°56' W 090°00'0 0.0
2015-Mar-02 02:33N 29°56' W 090°00'0 0.0
2015-Mar-02 01:33N 29°56' W 090°00'0 0.0
2015-Mar-02 00:33N 29°56' W 090°00'0 0.0
2015-Mar-01 23:32N 29°56' W 090°00'0 0.0
2015-Mar-01 22:32N 29°56' W 090°00'0 0.0
2015-Mar-01 21:30N 29°56' W 090°00'0 0.0
2015-Mar-01 20:30N 29°56' W 090°00'0 0.0
2015-Mar-01 19:22N 29°56' W 090°00'0 0.0
2015-Mar-01 11:31N 29°56' W 090°00'0 0.0
2015-Mar-01 10:31N 29°56' W 090°00'0 0.0
2015-Mar-01 09:31N 29°56' W 090°00'0 0.0
2015-Mar-01 08:31N 29°56' W 090°00'0 0.0
2015-Mar-01 07:33N 29°56' W 090°00'0 0.0
2015-Mar-01 06:31N 29°56' W 090°00'0 0.0
2015-Mar-01 04:25N 29°56' W 090°00'2 1.9
2015-Mar-01 03:20N 29°58' W 090°02'2 0.2
2015-Feb-28 15:13N 29°60' W 090°00'2 3.0
2015-Feb-28 14:28N 29°58' W 090°02'1 0.8
2015-Feb-28 13:32N 29°57' W 090°01'1 1.1
2015-Feb-28 12:27N 29°56' W 090°00'0 0.0
2015-Feb-28 11:25N 29°56' W 090°00'0 0.0
2015-Feb-28 10:33N 29°56' W 090°00'0 0.0
2015-Feb-28 09:22N 29°56' W 090°00'0 0.0
2015-Feb-28 08:32N 29°56' W 090°00'0 0.0
2015-Feb-28 07:21N 29°56' W 090°00'0 0.0
2015-Feb-28 06:29N 29°56' W 090°00'0 0.0
2015-Feb-28 05:31N 29°56' W 090°00'0 0.0
2015-Feb-28 04:29N 29°56' W 090°00'0 0.2
2015-Feb-28 03:31N 29°56' W 090°00'0 0.0
2015-Feb-28 00:19N 29°56' W 090°00'2 2.7
2015-Feb-27 23:33N 29°58' W 090°02'0 0.2
2015-Feb-27 22:25N 29°58' W 090°02'0 0.0
2015-Feb-27 21:15N 29°58' W 090°02'2 2.4
2015-Feb-27 20:33N 29°60' W 090°01'3 0.2
2015-Feb-27 07:09N 29°56' W 090°00'0 0.0
2015-Feb-27 06:22N 29°56' W 090°00'0 0.0
2015-Feb-27 02:33N 29°56' W 090°00'2 0.9
2015-Feb-27 00:29N 29°58' W 090°02'2 1.7
2015-Feb-26 23:31N 29°59' W 090°01'5 4.4
2015-Feb-26 22:23N 30°01' W 089°55'2 1.5
2015-Feb-26 21:07N 30°01' W 089°53'1 2.4
2015-Feb-26 20:31N 30°01' W 089°55'6 0.6
2015-Feb-26 09:16N 29°56' W 090°00'0 0.0
2015-Feb-26 08:33N 29°56' W 090°00'0 0.0
2015-Feb-26 07:25N 29°56' W 090°00'0 0.0
2015-Feb-26 06:32N 29°56' W 090°00'2 2.3
2015-Feb-26 05:32N 29°58' W 090°02'1 0.8
2015-Feb-26 04:33N 29°58' W 090°02'1 0.5
2015-Feb-26 03:30N 29°58' W 090°01'0 0.2
2015-Feb-26 02:33N 29°59' W 090°01'2 2.4
2015-Feb-26 01:32N 29°56' W 090°00'0 0.1
2015-Feb-26 00:27N 29°56' W 090°00'2 0.2
2015-Feb-25 11:13N 29°58' W 090°02'2 1.0
2015-Feb-25 09:05N 29°56' W 090°00'0 0.0
2015-Feb-25 08:21N 29°56' W 090°00'0 0.0
2015-Feb-25 07:23N 29°56' W 090°00'0 0.1
2015-Feb-25 06:24N 29°56' W 090°00'0 0.1
2015-Feb-25 05:31N 29°56' W 090°00'0 0.0
2015-Feb-25 04:33N 29°56' W 090°00'0 0.0
2015-Feb-25 03:31N 29°56' W 090°00'0 0.0
2015-Feb-25 02:33N 29°56' W 090°00'0 0.0
2015-Feb-25 01:32N 29°56' W 090°00'0 0.1
2015-Feb-25 00:33N 29°56' W 090°00'0 0.0
2015-Feb-24 23:16N 29°56' W 090°00'2 0.1
2015-Feb-24 07:16N 29°58' W 090°02'0 0.4
2015-Feb-24 06:24N 29°58' W 090°02'2 2.3
2015-Feb-24 05:32N 29°56' W 089°60'0 0.4
2015-Feb-24 04:29N 29°56' W 090°00'0 0.0
2015-Feb-24 03:33N 29°56' W 090°00'0 0.0
2015-Feb-24 02:31N 29°56' W 090°00'1 1.0
2015-Feb-24 01:30N 29°56' W 089°59'1 1.1
2015-Feb-24 00:15N 29°55' W 089°59'0 0.2
2015-Feb-23 23:33N 29°55' W 089°59'  
Track history (hours):
 
Tides and Currents Weather Stations Pressure Air Temp Water Temp Dewpoint Dewpoint Depression Visibility Wind Speed Wind Dir Waves Ship Positions

Todd G

Owner: Harbor Towing & Fleeting, Inc., Metairie, LA. More information available from US FCC via Universal Licensing System and Coast Guard Vessel Documentation Center.

Last reported at 2015-Mar-05 23:30 UTC. Time now 2015-Mar-06 04:06 UTC.
Position N 29°56' W 090°00'.

Length 16 m.

Type: Towing. MMSI: 366988470.

Date/timePositionNaut miles runAvg speedWind from/ knotsBaromVisibWave heightAir tempDewpointWater temp
2015-Mar-05 23:30N 29°56' W 090°00'4 0.6
2015-Mar-05 17:30N 29°60' W 090°00'3 1.3
2015-Mar-05 15:17N 29°57' W 090°01'1 1.7
2015-Mar-05 14:31N 29°56' W 090°00'0 0.2
2015-Mar-05 13:31N 29°56' W 090°00'0 0.1
2015-Mar-05 12:11N 29°56' W 090°00'0 0.0
2015-Mar-05 11:33N 29°56' W 090°00'0 0.0
2015-Mar-05 10:31N 29°56' W 090°00'0 0.0
2015-Mar-05 09:28N 29°56' W 090°00'0 0.0
2015-Mar-05 08:33N 29°56' W 090°00'0 0.0
2015-Mar-05 07:33N 29°56' W 090°00'0 0.0
2015-Mar-05 06:33N 29°56' W 090°00'0 0.0
2015-Mar-05 05:31N 29°56' W 090°00'0 0.0
2015-Mar-05 04:31N 29°56' W 090°00'0 0.0
2015-Mar-05 03:31N 29°56' W 090°00'2 2.0
2015-Mar-05 02:33N 29°58' W 090°02'2 2.3
2015-Mar-05 01:30N 29°60' W 089°60'3 2.6
2015-Mar-05 00:31N 29°58' W 090°02'0 0.3
2015-Mar-04 23:08N 29°57' W 090°01'2 0.2
2015-Mar-04 10:28N 29°59' W 090°01'0 0.0
2015-Mar-04 09:21N 29°59' W 090°01'0 0.0
2015-Mar-04 08:23N 29°59' W 090°01'0 0.0
2015-Mar-04 07:30N 29°59' W 090°01'0 0.0
2015-Mar-04 06:31N 29°59' W 090°01'2 1.6
2015-Mar-04 05:25N 29°60' W 089°59'1 0.3
2015-Mar-04 02:31N 30°00' W 089°58'4 3.9
2015-Mar-04 01:33N 29°58' W 090°02'2 1.9
2015-Mar-04 00:30N 29°56' W 090°00'0 0.1
2015-Mar-03 23:27N 29°56' W 090°00'0 0.0
2015-Mar-03 22:33N 29°56' W 090°00'0 0.0
2015-Mar-03 21:32N 29°56' W 090°00'0 0.0
2015-Mar-03 20:33N 29°56' W 090°00'3 2.1
2015-Mar-03 19:13N 29°55' W 089°57'0 0.2
2015-Mar-03 18:30N 29°55' W 089°57'4 4.6
2015-Mar-03 17:32N 29°58' W 090°02'2 1.4
2015-Mar-03 16:18N 29°59' W 090°01'2 3.2
2015-Mar-03 15:32N 29°57' W 090°01'1 0.0
2015-Mar-03 02:06N 29°56' W 090°00'0 0.0
2015-Mar-03 00:16N 29°56' W 090°00'0 0.0
2015-Mar-02 23:33N 29°56' W 090°00'1 0.6
2015-Mar-02 22:10N 29°57' W 090°01'4 4.8
2015-Mar-02 21:19N 29°55' W 090°05'0 0.0
2015-Mar-02 08:09N 29°55' W 090°05'2 3.7
2015-Mar-02 07:32N 29°56' W 090°03'3 2.7
2015-Mar-02 06:33N 29°56' W 090°00'0 0.0
2015-Mar-02 05:31N 29°56' W 090°00'0 0.0
2015-Mar-02 04:31N 29°56' W 090°00'0 0.0
2015-Mar-02 03:32N 29°56' W 090°00'0 0.0
2015-Mar-02 02:33N 29°56' W 090°00'0 0.0
2015-Mar-02 01:33N 29°56' W 090°00'0 0.0
2015-Mar-02 00:33N 29°56' W 090°00'0 0.0
2015-Mar-01 23:32N 29°56' W 090°00'0 0.0
2015-Mar-01 22:32N 29°56' W 090°00'0 0.0
2015-Mar-01 21:30N 29°56' W 090°00'0 0.0
2015-Mar-01 20:30N 29°56' W 090°00'0 0.0
2015-Mar-01 19:22N 29°56' W 090°00'0 0.0
2015-Mar-01 11:31N 29°56' W 090°00'0 0.0
2015-Mar-01 10:31N 29°56' W 090°00'0 0.0
2015-Mar-01 09:31N 29°56' W 090°00'0 0.0
2015-Mar-01 08:31N 29°56' W 090°00'0 0.0
2015-Mar-01 07:33N 29°56' W 090°00'0 0.0
2015-Mar-01 06:31N 29°56' W 090°00'0 0.0
2015-Mar-01 04:25N 29°56' W 090°00'2 1.9
2015-Mar-01 03:20N 29°58' W 090°02'2 0.2
2015-Feb-28 15:13N 29°60' W 090°00'2 3.0
2015-Feb-28 14:28N 29°58' W 090°02'1 0.8
2015-Feb-28 13:32N 29°57' W 090°01'1 1.1
2015-Feb-28 12:27N 29°56' W 090°00'0 0.0
2015-Feb-28 11:25N 29°56' W 090°00'0 0.0
2015-Feb-28 10:33N 29°56' W 090°00'0 0.0
2015-Feb-28 09:22N 29°56' W 090°00'0 0.0
2015-Feb-28 08:32N 29°56' W 090°00'0 0.0
2015-Feb-28 07:21N 29°56' W 090°00'0 0.0
2015-Feb-28 06:29N 29°56' W 090°00'0 0.0
2015-Feb-28 05:31N 29°56' W 090°00'0 0.0
2015-Feb-28 04:29N 29°56' W 090°00'0 0.2
2015-Feb-28 03:31N 29°56' W 090°00'0 0.0
2015-Feb-28 00:19N 29°56' W 090°00'2 2.7
2015-Feb-27 23:33N 29°58' W 090°02'0 0.2
2015-Feb-27 22:25N 29°58' W 090°02'0 0.0
2015-Feb-27 21:15N 29°58' W 090°02'2 2.4
2015-Feb-27 20:33N 29°60' W 090°01'3 0.2
2015-Feb-27 07:09N 29°56' W 090°00'0 0.0
2015-Feb-27 06:22N 29°56' W 090°00'0 0.0
2015-Feb-27 02:33N 29°56' W 090°00'2 0.9
2015-Feb-27 00:29N 29°58' W 090°02'2 1.7
2015-Feb-26 23:31N 29°59' W 090°01'5 4.4
2015-Feb-26 22:23N 30°01' W 089°55'2 1.5
2015-Feb-26 21:07N 30°01' W 089°53'1 2.4
2015-Feb-26 20:31N 30°01' W 089°55'6 0.6
2015-Feb-26 09:16N 29°56' W 090°00'0 0.0
2015-Feb-26 08:33N 29°56' W 090°00'0 0.0
2015-Feb-26 07:25N 29°56' W 090°00'0 0.0
2015-Feb-26 06:32N 29°56' W 090°00'2 2.3
2015-Feb-26 05:32N 29°58' W 090°02'1 0.8
2015-Feb-26 04:33N 29°58' W 090°02'1 0.5
2015-Feb-26 03:30N 29°58' W 090°01'0 0.2
2015-Feb-26 02:33N 29°59' W 090°01'2 2.4
2015-Feb-26 01:32N 29°56' W 090°00'0 0.1
2015-Feb-26 00:27N 29°56' W 090°00'2 0.2
2015-Feb-25 11:13N 29°58' W 090°02'2 1.0
2015-Feb-25 09:05N 29°56' W 090°00'0 0.0
2015-Feb-25 08:21N 29°56' W 090°00'0 0.0
2015-Feb-25 07:23N 29°56' W 090°00'0 0.1
2015-Feb-25 06:24N 29°56' W 090°00'0 0.1
2015-Feb-25 05:31N 29°56' W 090°00'0 0.0
2015-Feb-25 04:33N 29°56' W 090°00'0 0.0
2015-Feb-25 03:31N 29°56' W 090°00'0 0.0
2015-Feb-25 02:33N 29°56' W 090°00'0 0.0
2015-Feb-25 01:32N 29°56' W 090°00'0 0.1
2015-Feb-25 00:33N 29°56' W 090°00'0 0.0
2015-Feb-24 23:16N 29°56' W 090°00'2 0.1
2015-Feb-24 07:16N 29°58' W 090°02'0 0.4
2015-Feb-24 06:24N 29°58' W 090°02'2 2.3
2015-Feb-24 05:32N 29°56' W 089°60'0 0.4
2015-Feb-24 04:29N 29°56' W 090°00'0 0.0
2015-Feb-24 03:33N 29°56' W 090°00'0 0.0
2015-Feb-24 02:31N 29°56' W 090°00'1 1.0
2015-Feb-24 01:30N 29°56' W 089°59'1 1.1
2015-Feb-24 00:15N 29°55' W 089°59'0 0.2
2015-Feb-23 23:33N 29°55' W 089°59'  

Dump ship's entire track history